Time;durP1;ratioP1;P1;durP2;ratioP2;P2;SDS_P1;SDS_P2;PMS_P1;PMS_P2;Temp;Humidity;BMP_temperature;BMP_pressure;BME280_temperature;BME280_humidity;BME280_pressure;Samples;Min_cycle;Max_cycle;Signal;HPM_P1;HPM_P2
2023/04/06 00:00:08;;;;;;;25.00;17.30;;;;;;;-0.87;72.76;99325.86;109231;1251;65220;-76
2023/04/06 00:02:55;;;;;;;25.20;17.30;;;;;;;-0.92;73.12;99328.02;109484;1251;59165;-77
2023/04/06 00:05:22;;;;;;;23.80;16.60;;;;;;;-0.96;73.54;99328.79;109587;1251;59178;-76
2023/04/06 00:07:49;;;;;;;28.20;17.80;;;;;;;-0.99;73.88;99327.95;109280;1251;66049;-76
2023/04/06 00:10:17;;;;;;;25.60;16.60;;;;;;;-1.02;74.01;99328.70;109539;1251;60103;-76
2023/04/06 00:12:43;;;;;;;20.50;14.50;;;;;;;-1.04;74.05;99327.85;109550;1251;64120;-76
2023/04/06 00:15:10;;;;;;;21.00;13.90;;;;;;;-1.03;74.16;99330.28;109299;1251;59247;-76
2023/04/06 00:17:37;;;;;;;21.30;13.60;;;;;;;-1.00;74.31;99329.02;109558;1251;59100;-76
2023/04/06 00:20:04;;;;;;;18.50;12.80;;;;;;;-0.97;74.29;99323.21;109544;1250;66010;-76
2023/04/06 00:22:31;;;;;;;23.00;14.00;;;;;;;-0.96;74.20;99324.41;109559;1251;59050;-76
2023/04/06 00:24:57;;;;;;;23.40;15.40;;;;;;;-0.96;74.44;99329.13;109586;1251;62832;-76
2023/04/06 00:27:24;;;;;;;25.10;16.80;;;;;;;-0.99;74.62;99326.91;109540;1251;59110;-75
2023/04/06 00:29:50;;;;;;;28.70;20.80;;;;;;;-1.04;74.82;99322.63;109528;1251;59387;-76
2023/04/06 00:32:17;;;;;;;37.10;26.30;;;;;;;-1.10;75.20;99325.33;109308;1251;59640;-76
2023/04/06 00:34:43;;;;;;;40.10;27.70;;;;;;;-1.14;75.59;99325.22;109589;1250;59157;-76
2023/04/06 00:37:11;;;;;;;49.30;31.00;;;;;;;-1.19;76.07;99323.88;109481;1251;64073;-76
2023/04/06 00:39:37;;;;;;;47.10;30.00;;;;;;;-1.23;76.23;99323.95;109560;1251;59328;-76
2023/04/06 00:42:15;;;;;;;40.60;28.90;;;;;;;-1.28;76.54;99325.22;109310;1251;59270;-76
2023/04/06 00:44:42;;;;;;;41.50;29.50;;;;;;;-1.34;76.74;99325.83;109565;1251;65059;-76
2023/04/06 00:47:09;;;;;;;41.30;28.60;;;;;;;-1.39;76.89;99321.88;109560;1251;59030;-76
2023/04/06 00:49:36;;;;;;;40.20;28.20;;;;;;;-1.43;76.91;99323.52;109566;1251;62833;-76
2023/04/06 00:52:02;;;;;;;38.00;25.80;;;;;;;-1.46;77.07;99321.98;109550;1251;58972;-76
2023/04/06 00:54:30;;;;;;;38.50;27.60;;;;;;;-1.49;77.37;99320.98;109529;1251;59039;-76
2023/04/06 00:56:57;;;;;;;42.90;27.50;;;;;;;-1.53;77.62;99321.20;109497;1251;64785;-76
2023/04/06 00:59:23;;;;;;;42.40;29.80;;;;;;;-1.56;77.77;99321.95;109564;1251;59284;-76
2023/04/06 01:01:50;;;;;;;42.40;28.90;;;;;;;-1.60;78.00;99320.41;109535;1251;62871;-75
2023/04/06 01:04:16;;;;;;;36.70;28.30;;;;;;;-1.64;78.31;99322.21;109521;1251;58945;-76
2023/04/06 01:06:43;;;;;;;51.20;34.10;;;;;;;-1.67;78.56;99321.38;109557;1251;58941;-76
2023/04/06 01:09:09;;;;;;;46.70;31.80;;;;;;;-1.70;78.74;99321.95;109542;1251;67263;-76
2023/04/06 01:11:36;;;;;;;56.30;35.20;;;;;;;-1.73;78.81;99323.89;109496;1251;60116;-75
2023/04/06 01:14:03;;;;;;;51.30;35.70;;;;;;;-1.78;79.24;99324.30;109529;1251;64135;-75
2023/04/06 01:16:30;;;;;;;53.20;38.00;;;;;;;-1.82;79.61;99322.08;109529;1251;58999;-76
2023/04/06 01:18:56;;;;;;;59.90;38.90;;;;;;;-1.86;80.00;99318.46;109519;1251;58913;-76
2023/04/06 01:21:23;;;;;;;59.80;40.10;;;;;;;-1.89;80.35;99318.33;109233;1250;64934;-76
2023/04/06 01:23:49;;;;;;;59.10;39.60;;;;;;;-1.92;80.54;99321.14;109573;1251;59014;-75
2023/04/06 01:26:16;;;;;;;58.70;39.90;;;;;;;-1.95;80.61;99317.89;109556;1251;64110;-76
2023/04/06 01:28:44;;;;;;;64.20;41.80;;;;;;;-2.00;81.06;99315.31;109537;1251;59032;-76
2023/04/06 01:31:11;;;;;;;64.60;43.20;;;;;;;-2.03;81.42;99320.23;109553;1251;58949;-76
2023/04/06 01:33:38;;;;;;;63.50;42.00;;;;;;;-2.06;81.51;99319.21;109527;1251;65790;-76
2023/04/06 01:36:05;;;;;;;57.60;39.50;;;;;;;-2.09;81.79;99317.33;109637;1251;60129;-75
2023/04/06 01:38:31;;;;;;;58.40;41.50;;;;;;;-2.13;81.87;99314.92;109323;1251;63744;-76
2023/04/06 01:40:58;;;;;;;59.40;38.60;;;;;;;-2.15;82.06;99313.39;109504;1250;58973;-76
2023/04/06 01:43:24;;;;;;;52.60;34.80;;;;;;;-2.18;82.09;99312.73;109613;1251;59655;-75
2023/04/06 01:45:51;;;;;;;54.50;35.70;;;;;;;-2.19;82.07;99312.75;109588;1251;66033;-75
2023/04/06 01:48:18;;;;;;;48.70;32.10;;;;;;;-2.20;82.20;99313.10;109561;1250;60054;-76
2023/04/06 01:50:45;;;;;;;51.30;32.00;;;;;;;-2.21;82.33;99311.89;108746;1251;1002816;-77
2023/04/06 01:53:11;;;;;;;44.90;30.60;;;;;;;-2.22;82.53;99312.41;108796;1251;1002287;-76
2023/04/06 01:55:38;;;;;;;50.80;33.00;;;;;;;-2.24;82.51;99308.43;109534;1251;58872;-75
2023/04/06 01:58:05;;;;;;;45.70;29.20;;;;;;;-2.26;82.73;99310.20;109531;1251;66077;-76
2023/04/06 02:00:34;;;;;;;47.10;31.80;;;;;;;-2.28;82.89;99312.15;109580;1251;59392;-76
2023/04/06 02:03:01;;;;;;;43.30;29.90;;;;;;;-2.31;82.92;99310.95;109527;1251;64145;-77
2023/04/06 02:05:30;;;;;;;46.30;29.00;;;;;;;-2.33;83.14;99307.30;109522;1251;59105;-75
2023/04/06 02:07:57;;;;;;;48.40;30.80;;;;;;;-2.36;83.55;99303.70;109603;1251;59008;-75
2023/04/06 02:10:24;;;;;;;41.60;30.70;;;;;;;-2.39;83.74;99298.84;108776;1251;1002368;-75
2023/04/06 02:12:50;;;;;;;40.10;29.40;;;;;;;-2.40;83.99;99297.64;109321;1251;58954;-75
2023/04/06 02:15:17;;;;;;;47.90;30.50;;;;;;;-2.43;84.04;99295.76;109540;1251;64446;-75
2023/04/06 02:17:43;;;;;;;44.90;29.40;;;;;;;-2.46;84.15;99293.70;109567;1251;59267;-75
2023/04/06 02:20:10;;;;;;;43.40;30.20;;;;;;;-2.49;84.40;99290.06;109306;1251;59129;-75
2023/04/06 02:22:36;;;;;;;44.10;31.20;;;;;;;-2.51;84.48;99287.64;109548;1251;66042;-76
2023/04/06 02:25:03;;;;;;;48.30;30.80;;;;;;;-2.54;84.39;99289.94;109566;1251;60314;-75
2023/04/06 02:27:30;;;;;;;46.90;30.10;;;;;;;-2.56;84.36;99294.31;109543;1251;64097;-75
2023/04/06 02:29:56;;;;;;;47.00;30.90;;;;;;;-2.60;84.58;99296.42;109509;1251;59227;-75
2023/04/06 02:32:23;;;;;;;49.50;32.00;;;;;;;-2.63;84.84;99294.72;108538;1251;1002297;-74
2023/04/06 02:34:50;;;;;;;51.00;34.10;;;;;;;-2.67;85.41;99297.02;109578;1251;66056;-74
2023/04/06 02:37:16;;;;;;;65.50;41.90;;;;;;;-2.69;85.62;99299.30;109584;1251;58921;-75
2023/04/06 02:39:43;;;;;;;71.00;47.90;;;;;;;-2.73;85.93;99299.33;109505;1251;64108;-75
2023/04/06 02:42:09;;;;;;;64.00;46.20;;;;;;;-2.77;86.38;99298.67;109540;1251;60469;-75
2023/04/06 02:44:36;;;;;;;61.40;43.50;;;;;;;-2.80;86.97;99297.65;109552;1251;59110;-76
2023/04/06 02:47:02;;;;;;;67.80;45.10;;;;;;;-2.81;87.55;99301.48;109535;1251;66051;-76
2023/04/06 02:49:29;;;;;;;60.80;44.10;;;;;;;-2.83;87.90;99306.88;109577;1251;60154;-76
2023/04/06 02:51:56;;;;;;;60.10;42.40;;;;;;;-2.85;88.05;99308.98;109606;1251;63871;-76
2023/04/06 02:54:22;;;;;;;61.50;41.70;;;;;;;-2.85;88.21;99310.73;109499;1251;59730;-75
2023/04/06 02:56:49;;;;;;;55.10;38.20;;;;;;;-2.87;88.72;99307.45;109563;1251;58888;-75
2023/04/06 02:59:15;;;;;;;60.10;40.70;;;;;;;-2.89;89.11;99308.85;109607;1251;64805;-75
2023/04/06 03:01:42;;;;;;;57.00;38.80;;;;;;;-2.91;89.21;99312.16;109229;1260;60098;-75
2023/04/06 03:04:08;;;;;;;60.10;39.60;;;;;;;-2.93;89.44;99310.97;109543;1251;63904;-74
2023/04/06 03:06:35;;;;;;;60.90;39.20;;;;;;;-2.95;89.80;99308.70;109549;1251;59157;-76
2023/04/06 03:09:02;;;;;;;59.10;39.80;;;;;;;-2.96;89.92;99311.34;109562;1251;59002;-75
2023/04/06 03:11:28;;;;;;;56.40;39.40;;;;;;;-2.98;90.16;99312.21;109571;1251;66020;-75
2023/04/06 03:13:55;;;;;;;56.70;40.20;;;;;;;-2.99;90.71;99308.05;109551;1250;60253;-75
2023/04/06 03:16:22;;;;;;;55.70;39.40;;;;;;;-3.01;90.74;99311.70;109549;1251;62937;-75
2023/04/06 03:18:48;;;;;;;55.10;39.20;;;;;;;-3.03;90.92;99312.42;109546;1251;59024;-76
2023/04/06 03:21:19;;;;;;;52.90;38.00;;;;;;;-3.05;91.13;99314.53;109239;1251;59460;-76
2023/04/06 03:23:45;;;;;;;57.30;37.50;;;;;;;-3.07;91.40;99315.93;109575;1251;64523;-76
2023/04/06 03:26:12;;;;;;;54.30;37.50;;;;;;;-3.09;91.67;99317.16;109548;1251;60157;-75
2023/04/06 03:28:39;;;;;;;57.50;37.30;;;;;;;-3.11;91.63;99318.39;109551;1251;64083;-76
2023/04/06 03:31:05;;;;;;;49.70;36.70;;;;;;;-3.12;91.79;99315.10;109522;1251;58940;-75
2023/04/06 03:33:32;;;;;;;47.30;35.30;;;;;;;-3.12;91.88;99317.53;109502;1251;58945;-75
2023/04/06 03:35:58;;;;;;;52.60;37.90;;;;;;;-3.13;91.85;99317.36;109516;1251;66009;-75
2023/04/06 03:38:25;;;;;;;52.80;37.40;;;;;;;-3.14;92.23;99317.88;109562;1251;58981;-75
2023/04/06 03:40:51;;;;;;;48.90;34.10;;;;;;;-3.14;92.61;99319.45;109518;1251;59078;-75
2023/04/06 03:43:17;;;;;;;47.70;35.20;;;;;;;-3.16;92.59;99321.20;109219;1255;59054;-75
2023/04/06 03:45:44;;;;;;;52.10;38.80;;;;;;;-3.18;92.71;99320.52;109552;1251;59083;-75
2023/04/06 03:48:11;;;;;;;59.40;40.80;;;;;;;-3.20;92.84;99320.70;109499;1255;64809;-75
2023/04/06 03:50:37;;;;;;;51.80;37.90;;;;;;;-3.22;93.00;99323.33;109563;1251;59013;-75
2023/04/06 03:53:04;;;;;;;52.90;37.40;;;;;;;-3.25;93.16;99321.77;109340;1251;59056;-76
2023/04/06 03:55:30;;;;;;;57.20;40.10;;;;;;;-3.27;93.45;99324.23;109624;1251;59295;-75
2023/04/06 03:57:57;;;;;;;60.30;42.00;;;;;;;-3.29;93.71;99322.33;109499;1251;59005;-76
2023/04/06 04:00:25;;;;;;;57.90;41.60;;;;;;;-3.29;94.10;99324.59;109656;1251;66026;-76
2023/04/06 04:02:51;;;;;;;60.50;44.30;;;;;;;-3.29;94.73;99325.62;109310;1257;59138;-75
2023/04/06 04:05:18;;;;;;;61.40;43.50;;;;;;;-3.29;95.13;99328.41;109590;1251;64044;-76
2023/04/06 04:07:44;;;;;;;59.60;42.40;;;;;;;-3.28;95.42;99324.75;109561;1251;59008;-75
2023/04/06 04:10:11;;;;;;;60.30;43.20;;;;;;;-3.26;95.52;99325.10;109658;1251;59020;-75
2023/04/06 04:12:37;;;;;;;60.70;41.30;;;;;;;-3.25;95.29;99323.88;108786;1255;1002680;-76
2023/04/06 04:15:04;;;;;;;58.50;40.50;;;;;;;-3.24;95.28;99332.71;108769;1251;1002447;-76
2023/04/06 04:17:31;;;;;;;61.90;41.80;;;;;;;-3.23;95.56;99331.15;109276;1251;62943;-76
2023/04/06 04:19:57;;;;;;;54.50;38.80;;;;;;;-3.19;95.91;99329.90;109536;1251;59017;-76
2023/04/06 04:22:24;;;;;;;56.30;35.90;;;;;;;-3.14;95.87;99331.09;109492;1251;58992;-76
2023/04/06 04:24:51;;;;;;;50.30;35.40;;;;;;;-3.08;95.76;99332.62;109575;1251;66072;-76
2023/04/06 04:27:17;;;;;;;48.50;35.30;;;;;;;-3.02;95.69;99332.58;109532;1251;59079;-76
2023/04/06 04:29:44;;;;;;;47.70;34.40;;;;;;;-2.94;95.45;99332.17;109550;1251;64487;-77
2023/04/06 04:32:11;;;;;;;44.30;32.80;;;;;;;-2.85;95.32;99331.41;109467;1251;59277;-75
2023/04/06 04:34:40;;;;;;;47.80;36.00;;;;;;;-2.74;95.05;99330.12;108501;1251;1002248;-75
2023/04/06 04:37:06;;;;;;;46.10;33.50;;;;;;;-2.58;94.80;99328.08;109559;1250;66072;-76
2023/04/06 04:39:33;;;;;;;55.60;38.10;;;;;;;-2.38;94.44;99329.98;109567;1251;60108;-76
2023/04/06 04:41:59;;;;;;;53.30;37.60;;;;;;;-2.24;94.08;99326.89;109529;1251;59093;-76
2023/04/06 04:44:26;;;;;;;57.50;39.70;;;;;;;-2.18;93.84;99323.17;109483;1251;58943;-75
2023/04/06 04:46:52;;;;;;;59.00;40.50;;;;;;;-2.14;93.97;99321.73;109575;1251;58969;-75
2023/04/06 04:49:19;;;;;;;65.20;39.50;;;;;;;-2.10;93.87;99318.39;109246;1251;59027;-76
2023/04/06 04:51:45;;;;;;;60.80;42.10;;;;;;;-2.05;93.62;99323.21;109541;1251;59000;-75
2023/04/06 04:54:12;;;;;;;57.30;41.00;;;;;;;-1.98;93.37;99322.78;109124;1251;59055;-76
2023/04/06 04:56:38;;;;;;;59.10;40.80;;;;;;;-1.88;93.17;99320.94;109498;1251;59059;-76
2023/04/06 04:59:05;;;;;;;55.70;40.30;;;;;;;-1.76;93.00;99321.14;108786;1251;1002341;-76
2023/04/06 05:01:31;;;;;;;53.70;39.70;;;;;;;-1.62;92.55;99320.10;109552;1251;66025;-76
2023/04/06 05:03:58;;;;;;;53.50;39.50;;;;;;;-1.49;92.09;99320.81;108852;1251;1002400;-76
2023/04/06 05:06:25;;;;;;;54.10;38.60;;;;;;;-1.37;91.75;99318.73;109535;1251;64046;-76
2023/04/06 05:08:51;;;;;;;50.60;35.30;;;;;;;-1.23;91.45;99314.36;109521;1251;59286;-76
2023/04/06 05:11:18;;;;;;;47.40;36.60;;;;;;;-1.09;90.95;99318.17;109548;1251;59103;-76
2023/04/06 05:13:45;;;;;;;46.30;32.90;;;;;;;-0.93;90.61;99318.79;109513;1251;64821;-76
2023/04/06 05:16:12;;;;;;;42.30;31.80;;;;;;;-0.78;90.08;99316.81;109567;1251;58992;-76
2023/04/06 05:18:38;;;;;;;44.40;32.00;;;;;;;-0.62;89.30;99315.69;109492;1251;64479;-75
2023/04/06 05:21:05;;;;;;;42.90;32.40;;;;;;;-0.46;88.53;99316.47;109305;1251;58951;-75
2023/04/06 05:23:31;;;;;;;39.80;31.80;;;;;;;-0.32;87.78;99315.35;109511;1251;59322;-75
2023/04/06 05:25:58;;;;;;;40.10;30.90;;;;;;;-0.18;87.31;99315.45;109483;1251;64838;-75
2023/04/06 05:28:25;;;;;;;38.10;30.20;;;;;;;-0.06;86.62;99315.21;109562;1251;60022;-76
2023/04/06 05:30:52;;;;;;;43.10;33.90;;;;;;;0.06;86.07;99315.70;109522;1251;64738;-75
2023/04/06 05:33:19;;;;;;;49.60;33.20;;;;;;;0.22;85.94;99317.48;109308;1251;59367;-75
2023/04/06 05:35:45;;;;;;;45.00;33.30;;;;;;;0.36;85.00;99313.19;109504;1251;59462;-75
2023/04/06 05:38:12;;;;;;;34.20;25.80;;;;;;;0.46;84.26;99311.39;109329;1251;59563;-76
2023/04/06 05:40:40;;;;;;;35.70;23.10;;;;;;;0.53;83.25;99308.48;109567;1251;59136;-76
2023/04/06 05:43:07;;;;;;;35.00;25.40;;;;;;;0.60;82.79;99309.34;109583;1251;62874;-76
2023/04/06 05:45:34;;;;;;;33.50;23.40;;;;;;;0.72;82.23;99307.17;109510;1251;58959;-76
2023/04/06 05:48:02;;;;;;;45.20;29.20;;;;;;;0.79;81.51;99301.59;109544;1251;59042;-76
2023/04/06 05:50:29;;;;;;;35.50;25.30;;;;;;;0.87;81.32;99301.77;109570;1251;66049;-77
2023/04/06 05:52:55;;;;;;;36.20;24.50;;;;;;;0.96;80.86;99298.58;109346;1251;60158;-76
2023/04/06 05:55:22;;;;;;;27.90;21.30;;;;;;;1.00;79.84;99300.23;109221;1251;62849;-75
2023/04/06 05:57:48;;;;;;;32.70;24.50;;;;;;;1.02;79.38;99300.20;109510;1251;58980;-76
2023/04/06 06:00:15;;;;;;;34.40;24.40;;;;;;;1.06;79.48;99300.63;109583;1251;59399;-76
2023/04/06 06:02:42;;;;;;;34.20;25.40;;;;;;;1.10;79.08;99300.70;109611;1251;66031;-76
2023/04/06 06:05:09;;;;;;;33.00;24.40;;;;;;;1.13;79.00;99296.95;109505;1251;59924;-76
2023/04/06 06:07:36;;;;;;;34.90;26.80;;;;;;;1.21;79.05;99294.15;109527;1251;62830;-75
2023/04/06 06:10:03;;;;;;;34.40;23.50;;;;;;;1.29;78.35;99292.38;109550;1251;58959;-77
2023/04/06 06:12:30;;;;;;;33.20;23.70;;;;;;;1.38;78.15;99293.04;109563;1251;58940;-76
2023/04/06 06:14:57;;;;;;;31.30;22.00;;;;;;;1.45;77.40;99290.91;109586;1251;66310;-76
2023/04/06 06:17:23;;;;;;;30.40;22.80;;;;;;;1.49;77.02;99290.64;109542;1251;60037;-76
2023/04/06 06:19:50;;;;;;;23.90;18.60;;;;;;;1.54;76.31;99294.90;109551;1251;59064;-76
2023/04/06 06:22:16;;;;;;;28.90;18.90;;;;;;;1.57;75.60;99297.12;109536;1251;59062;-77
2023/04/06 06:24:43;;;;;;;28.10;19.90;;;;;;;1.58;75.23;99294.12;109342;1251;59181;-76
2023/04/06 06:27:09;;;;;;;27.20;19.50;;;;;;;1.61;74.98;99295.78;109578;1251;66600;-76
2023/04/06 06:29:36;;;;;;;29.40;19.60;;;;;;;1.72;75.17;99294.60;109521;1251;58938;-75
2023/04/06 06:32:02;;;;;;;25.30;18.60;;;;;;;1.90;74.64;99294.13;109538;1250;59054;-76
2023/04/06 06:34:29;;;;;;;28.00;18.30;;;;;;;1.98;73.46;99296.02;109539;1250;58949;-75
2023/04/06 06:36:56;;;;;;;24.90;17.30;;;;;;;2.07;73.19;99295.08;109389;1251;59151;-76
2023/04/06 06:39:23;;;;;;;22.40;17.40;;;;;;;2.16;72.47;99296.21;109562;1251;66499;-75
2023/04/06 06:41:49;;;;;;;24.20;16.80;;;;;;;2.27;72.67;99298.56;109531;1251;68414;-76
2023/04/06 06:44:16;;;;;;;25.10;16.90;;;;;;;2.47;72.76;99296.56;109557;1251;72670;-76
2023/04/06 06:46:43;;;;;;;22.90;15.80;;;;;;;2.63;71.90;99294.52;109574;1251;59027;-76
2023/04/06 06:49:12;;;;;;;22.70;14.20;;;;;;;2.75;71.08;99297.13;109525;1251;59044;-75
2023/04/06 06:51:38;;;;;;;23.10;14.60;;;;;;;2.90;70.03;99300.02;109540;1251;65354;-75
2023/04/06 06:54:05;;;;;;;20.70;13.40;;;;;;;3.04;68.93;99298.90;109384;1250;59164;-75
2023/04/06 06:56:31;;;;;;;19.30;14.70;;;;;;;3.14;69.00;99300.50;109525;1251;62805;-76
2023/04/06 06:58:58;;;;;;;20.80;14.80;;;;;;;3.31;68.06;99295.92;109565;1251;59178;-76
2023/04/06 07:01:24;;;;;;;16.30;12.60;;;;;;;3.36;67.52;99295.76;109576;1251;59175;-76
2023/04/06 07:03:51;;;;;;;18.00;14.40;;;;;;;3.50;67.42;99294.05;109567;1251;66085;-76
2023/04/06 07:06:17;;;;;;;19.00;14.50;;;;;;;3.65;67.19;99294.45;109551;1251;59054;-75
2023/04/06 07:08:44;;;;;;;10.50;9.20;;;;;;;3.78;66.44;99294.70;109252;1251;59028;-76
2023/04/06 07:11:11;;;;;;;11.70;8.00;;;;;;;3.89;65.35;99291.52;109542;1251;59414;-76
2023/04/06 07:13:37;;;;;;;13.70;9.70;;;;;;;3.94;64.68;99291.85;109565;1251;59023;-76
2023/04/06 07:16:04;;;;;;;10.60;8.30;;;;;;;3.90;62.44;99289.00;109505;1251;64791;-77
2023/04/06 07:18:31;;;;;;;13.30;8.70;;;;;;;3.75;61.95;99291.46;109361;1251;60035;-76
2023/04/06 07:20:57;;;;;;;13.10;8.20;;;;;;;3.79;62.78;99287.79;109567;1251;62766;-76
2023/04/06 07:23:23;;;;;;;10.40;8.20;;;;;;;3.82;62.35;99286.30;109351;1251;59017;-76
2023/04/06 07:25:52;;;;;;;9.80;8.80;;;;;;;3.90;61.89;99284.09;109544;1251;59060;-76
2023/04/06 07:28:18;;;;;;;12.30;8.00;;;;;;;4.02;60.85;99284.19;109526;1251;65890;-75
2023/04/06 07:30:45;;;;;;;10.40;7.10;;;;;;;4.24;61.71;99280.06;109572;1251;58983;-75
2023/04/06 07:33:11;;;;;;;9.30;7.10;;;;;;;4.44;60.81;99281.08;109603;1251;63912;-75
2023/04/06 07:35:39;;;;;;;10.20;8.60;;;;;;;4.43;59.76;99276.52;109533;1251;59204;-75
2023/04/06 07:38:05;;;;;;;9.20;6.80;;;;;;;4.36;59.27;99282.94;109590;1251;59010;-75
2023/04/06 07:40:32;;;;;;;8.50;7.10;;;;;;;4.28;58.90;99283.25;109639;1251;66173;-76
2023/04/06 07:42:59;;;;;;;7.90;7.10;;;;;;;4.29;59.32;99280.39;109627;1251;59529;-74
2023/04/06 07:45:25;;;;;;;9.30;7.30;;;;;;;4.38;58.88;99281.48;109525;1251;64091;-74
2023/04/06 07:47:52;;;;;;;10.00;7.50;;;;;;;4.39;57.68;99286.33;109573;1251;59099;-76
2023/04/06 07:50:18;;;;;;;9.30;7.30;;;;;;;4.41;58.35;99282.25;109588;1251;59015;-75
2023/04/06 07:52:45;;;;;;;9.90;7.50;;;;;;;4.55;58.19;99286.45;109266;1251;64860;-76
2023/04/06 07:55:12;;;;;;;11.20;8.20;;;;;;;4.56;57.13;99279.23;109605;1251;60117;-75
2023/04/06 07:57:38;;;;;;;8.10;7.20;;;;;;;4.56;57.28;99276.75;109556;1251;62658;-77
2023/04/06 08:00:05;;;;;;;11.20;8.00;;;;;;;4.53;56.40;99279.48;109542;1251;59013;-76
2023/04/06 08:02:32;;;;;;;10.90;8.90;;;;;;;4.47;56.98;99282.04;109539;1251;59001;-75
2023/04/06 08:04:59;;;;;;;11.20;8.40;;;;;;;4.50;57.35;99277.01;109591;1251;65763;-76
2023/04/06 08:07:26;;;;;;;10.20;8.60;;;;;;;4.52;57.24;99280.59;109581;1250;60253;-76
2023/04/06 08:09:52;;;;;;;11.70;8.60;;;;;;;4.52;56.99;99280.41;109543;1251;64130;-76
2023/04/06 08:12:19;;;;;;;12.50;8.90;;;;;;;4.45;56.60;99278.58;109565;1251;59104;-76
2023/04/06 08:14:47;;;;;;;12.30;10.10;;;;;;;4.35;57.33;99279.98;109571;1251;59000;-75
2023/04/06 08:17:14;;;;;;;14.60;9.70;;;;;;;4.32;57.52;99282.02;109562;1251;64813;-75
2023/04/06 08:19:43;;;;;;;14.70;9.70;;;;;;;4.28;57.33;99283.94;109603;1251;58921;-75
2023/04/06 08:22:11;;;;;;;12.90;9.00;;;;;;;4.27;57.38;99281.00;109543;1251;64043;-76
2023/04/06 08:24:37;;;;;;;14.90;10.00;;;;;;;4.24;56.62;99275.46;109564;1251;58987;-75
2023/04/06 08:27:04;;;;;;;15.20;10.20;;;;;;;4.14;56.39;99276.56;109526;1251;58940;-75
2023/04/06 08:29:30;;;;;;;17.30;11.30;;;;;;;4.09;56.06;99277.95;108841;1250;1002400;-75
2023/04/06 08:31:57;;;;;;;15.10;12.10;;;;;;;4.07;56.02;99275.58;109587;1251;58994;-76
2023/04/06 08:34:24;;;;;;;19.60;13.50;;;;;;;4.17;55.94;99274.34;109558;1251;64059;-76
2023/04/06 08:36:50;;;;;;;15.90;12.50;;;;;;;4.25;55.75;99272.29;109578;1251;59127;-77
2023/04/06 08:39:17;;;;;;;12.50;10.10;;;;;;;4.31;55.80;99270.84;108818;1251;1002387;-76
2023/04/06 08:41:43;;;;;;;15.30;11.60;;;;;;;4.41;55.61;99268.19;109515;1251;66017;-75
2023/04/06 08:44:11;;;;;;;15.60;11.80;;;;;;;4.46;54.90;99268.52;109556;1251;59001;-77
2023/04/06 08:46:37;;;;;;;18.60;13.40;;;;;;;4.45;54.98;99272.23;109328;1251;62834;-76
2023/04/06 08:49:06;;;;;;;14.90;11.30;;;;;;;4.52;54.94;99269.33;109533;1251;58991;-76
2023/04/06 08:51:34;;;;;;;17.00;11.30;;;;;;;4.63;54.82;99265.03;109585;1251;59027;-76
2023/04/06 08:54:01;;;;;;;18.30;12.70;;;;;;;4.73;54.64;99260.59;109596;1251;66020;-77
2023/04/06 08:56:28;;;;;;;17.80;12.80;;;;;;;4.77;54.26;99261.36;109570;1251;59011;-76
2023/04/06 08:58:55;;;;;;;20.50;14.30;;;;;;;4.73;53.65;99260.27;109552;1251;64057;-77
2023/04/06 09:01:27;;;;;;;19.80;14.30;;;;;;;4.68;53.90;99258.00;109520;1251;58978;-77
2023/04/06 09:03:57;;;;;;;17.90;13.00;;;;;;;4.69;53.60;99254.27;109491;1251;59034;-77
2023/04/06 09:06:26;;;;;;;15.90;12.80;;;;;;;4.66;53.13;99255.62;109580;1251;66023;-77
2023/04/06 09:08:53;;;;;;;15.90;12.00;;;;;;;4.64;52.61;99249.52;109610;1251;60158;-77
2023/04/06 09:11:20;;;;;;;17.90;13.20;;;;;;;4.62;52.97;99244.98;109525;1251;63411;-77
2023/04/06 09:13:52;;;;;;;16.90;13.60;;;;;;;4.72;53.16;99247.81;109537;1251;59187;-75
2023/04/06 09:16:18;;;;;;;17.80;13.80;;;;;;;4.78;52.79;99244.41;109591;1251;59804;-76
2023/04/06 09:18:46;;;;;;;18.10;13.10;;;;;;;4.82;53.07;99243.86;109570;1251;66036;-76
2023/04/06 09:21:13;;;;;;;16.00;12.50;;;;;;;4.91;52.76;99240.55;109492;1251;59972;-76
2023/04/06 09:23:39;;;;;;;14.80;12.40;;;;;;;4.95;52.86;99241.81;109397;1251;149592;-76
2023/04/06 09:26:15;;;;;;;14.80;12.50;;;;;;;5.00;52.40;99236.29;109227;1251;59068;-76
2023/04/06 09:28:52;;;;;;;15.60;11.60;;;;;;;5.08;52.38;99238.11;109585;1251;59011;-76
2023/04/06 09:31:24;;;;;;;13.00;11.20;;;;;;;5.19;52.54;99235.17;109570;1250;66134;-76
2023/04/06 09:33:51;;;;;;;13.80;10.40;;;;;;;5.30;51.54;99235.63;109565;1250;59028;-76
2023/04/06 09:36:18;;;;;;;13.60;10.00;;;;;;;5.34;51.36;99229.08;109579;1251;64119;-76
2023/04/06 09:38:54;;;;;;;12.50;10.80;;;;;;;5.47;51.35;99225.55;109566;1251;59049;-76
2023/04/06 09:41:41;;;;;;;15.70;12.20;;;;;;;5.57;50.66;99230.60;109588;1251;58901;-76
2023/04/06 09:44:11;;;;;;;15.00;12.60;;;;;;;5.67;50.97;99222.92;109588;1251;66022;-76
2023/04/06 09:46:42;;;;;;;68.10;29.90;;;;;;;5.82;50.96;99219.83;109594;1251;60187;-76
2023/04/06 09:49:10;;;;;;;16.40;11.10;;;;;;;5.85;50.04;99220.91;109549;1251;64115;-77
2023/04/06 09:51:44;;;;;;;16.50;11.80;;;;;;;5.84;49.63;99219.05;109534;1251;59090;-77
2023/04/06 09:54:11;;;;;;;12.40;9.70;;;;;;;5.77;49.49;99222.66;109565;1251;58964;-76
2023/04/06 09:56:49;;;;;;;21.20;16.50;;;;;;;5.78;49.76;99222.27;109610;1251;66047;-77
2023/04/06 09:59:44;;;;;;;12.50;10.80;;;;;;;5.68;49.11;99223.95;109558;1250;60269;-77
2023/04/06 10:02:28;;;;;;;13.10;10.70;;;;;;;5.56;49.99;99220.97;109540;1251;62772;-76
2023/04/06 10:05:16;;;;;;;13.40;11.10;;;;;;;5.62;50.14;99223.67;109535;1251;58972;-76
2023/04/06 10:07:45;;;;;;;17.90;13.90;;;;;;;5.73;49.64;99222.17;109608;1251;59036;-77
2023/04/06 10:10:14;;;;;;;16.60;12.30;;;;;;;5.76;49.69;99216.77;109557;1251;64849;-77
2023/04/06 10:12:41;;;;;;;14.80;12.30;;;;;;;5.73;49.60;99217.05;109584;1251;60131;-77
2023/04/06 10:15:09;;;;;;;14.80;10.90;;;;;;;5.73;49.55;99215.65;109379;1251;62864;-77
2023/04/06 10:17:35;;;;;;;14.30;11.40;;;;;;;5.75;50.15;99213.41;109352;1251;59098;-77
2023/04/06 10:20:27;;;;;;;14.30;12.20;;;;;;;5.91;50.58;99210.10;109554;1251;59034;-77
2023/04/06 10:23:20;;;;;;;13.80;10.80;;;;;;;5.98;49.70;99203.12;109586;1250;64865;-77
2023/04/06 10:25:54;;;;;;;13.70;12.20;;;;;;;5.79;49.33;99203.89;109621;1251;60590;-76
2023/04/06 10:28:21;;;;;;;16.30;12.90;;;;;;;5.60;49.54;99207.72;109567;1251;64030;-77
2023/04/06 10:30:48;;;;;;;21.20;14.70;;;;;;;5.50;49.85;99208.16;109551;1251;59009;-76
2023/04/06 10:33:16;;;;;;;19.10;14.10;;;;;;;5.47;49.87;99207.04;109527;1251;58968;-77
2023/04/06 10:35:43;;;;;;;18.90;13.80;;;;;;;5.34;49.45;99210.08;109351;1251;64851;-76
2023/04/06 10:38:12;;;;;;;22.20;14.90;;;;;;;5.14;49.96;99206.67;109587;1251;59361;-76
2023/04/06 10:40:42;;;;;;;15.50;12.80;;;;;;;5.05;50.54;99208.25;109527;1250;63128;-76
2023/04/06 10:43:14;;;;;;;14.20;12.20;;;;;;;5.08;50.96;99205.54;109538;1251;58988;-76
2023/04/06 10:45:42;;;;;;;17.30;13.80;;;;;;;5.15;50.96;99203.13;109605;1251;59019;-76
2023/04/06 10:48:16;;;;;;;24.60;14.60;;;;;;;5.17;50.84;99200.21;109535;1250;64879;-77
2023/04/06 10:50:52;;;;;;;18.40;14.20;;;;;;;5.17;50.29;99202.52;109555;1251;60142;-76
2023/04/06 10:53:23;;;;;;;15.40;12.90;;;;;;;5.26;50.77;99195.09;109577;1251;62901;-76
2023/04/06 10:55:51;;;;;;;21.20;15.00;;;;;;;5.43;50.83;99191.52;109508;1251;58965;-76
2023/04/06 10:58:19;;;;;;;17.00;12.90;;;;;;;5.57;50.46;99193.41;109542;1251;58886;-77
2023/04/06 11:00:49;;;;;;;18.30;14.10;;;;;;;5.55;49.81;99192.78;109550;1250;64834;-76
2023/04/06 11:03:24;;;;;;;15.30;12.30;;;;;;;5.47;49.49;99189.94;109551;1251;60083;-76
2023/04/06 11:05:51;;;;;;;17.90;14.70;;;;;;;5.46;50.07;99184.86;109535;1251;63351;-76
2023/04/06 11:08:31;;;;;;;16.40;13.10;;;;;;;5.56;50.46;99184.45;109554;1251;58976;-77
2023/04/06 11:11:20;;;;;;;15.00;12.30;;;;;;;5.58;50.08;99184.38;109555;1251;58997;-76
2023/04/06 11:13:52;;;;;;;17.40;11.90;;;;;;;5.59;50.21;99179.41;109550;1251;66154;-76
2023/04/06 11:16:20;;;;;;;16.00;13.00;;;;;;;5.59;49.71;99179.55;109508;1251;60186;-77